Terminal Aerodrome Forecast
Issued by NWS

Home | Current Version | Previous Version | Text Only | Print | Product List | Glossary On
Versions: 1 2 3 4 5 6 7 8 9 10 11 12 13 14 15 16 17 18 19 20 21
000
FTUS43 KICT 062320
TAFSLN
TAF
KSLN 062320Z 0700/0724 17023G33KT P6SM VCTS BKN035CB OVC050
     FM070800 18022G30KT P6SM BKN010
     FM071700 20015KT P6SM SCT020 BKN100
     FM072100 21009KT P6SM VCTS SCT040CB BKN100=

USA.gov is the U.S. government's official web portal to all federal, state and local government web resources and services.